sensor_id;sensor_type;location;lat;lon;timestamp;P1;durP1;ratioP1;P2;durP2;ratioP2
57395;SDS011;43222;52.912;6.940;2022-10-26T00:02:18;23.50;;;15.20;;
57395;SDS011;43222;52.912;6.940;2022-10-26T00:04:44;20.40;;;14.63;;
57395;SDS011;43222;52.912;6.940;2022-10-26T00:07:10;22.20;;;14.27;;
57395;SDS011;43222;52.912;6.940;2022-10-26T00:09:36;23.60;;;14.82;;
57395;SDS011;43222;52.912;6.940;2022-10-26T00:12:02;20.85;;;14.35;;
57395;SDS011;43222;52.912;6.940;2022-10-26T00:14:29;22.45;;;14.50;;
57395;SDS011;43222;52.912;6.940;2022-10-26T00:16:55;18.05;;;14.35;;
57395;SDS011;43222;52.912;6.940;2022-10-26T00:19:21;23.23;;;16.00;;
57395;SDS011;43222;52.912;6.940;2022-10-26T00:21:47;27.67;;;15.30;;
57395;SDS011;43222;52.912;6.940;2022-10-26T00:24:13;23.75;;;14.25;;
57395;SDS011;43222;52.912;6.940;2022-10-26T00:26:39;18.30;;;14.15;;
57395;SDS011;43222;52.912;6.940;2022-10-26T00:29:05;21.73;;;15.55;;
57395;SDS011;43222;52.912;6.940;2022-10-26T00:31:32;22.67;;;15.35;;
57395;SDS011;43222;52.912;6.940;2022-10-26T00:33:58;19.35;;;13.95;;
57395;SDS011;43222;52.912;6.940;2022-10-26T00:36:25;21.58;;;14.45;;
57395;SDS011;43222;52.912;6.940;2022-10-26T00:38:53;21.27;;;14.15;;
57395;SDS011;43222;52.912;6.940;2022-10-26T00:41:20;22.20;;;13.95;;
57395;SDS011;43222;52.912;6.940;2022-10-26T00:43:47;20.30;;;14.23;;
57395;SDS011;43222;52.912;6.940;2022-10-26T00:46:17;19.00;;;13.27;;
57395;SDS011;43222;52.912;6.940;2022-10-26T00:51:12;20.42;;;13.38;;
57395;SDS011;43222;52.912;6.940;2022-10-26T00:53:39;17.13;;;13.27;;
57395;SDS011;43222;52.912;6.940;2022-10-26T00:56:06;19.42;;;13.43;;
57395;SDS011;43222;52.912;6.940;2022-10-26T00:58:33;20.70;;;13.82;;
57395;SDS011;43222;52.912;6.940;2022-10-26T01:00:59;22.52;;;14.00;;
57395;SDS011;43222;52.912;6.940;2022-10-26T01:03:25;18.33;;;13.73;;
57395;SDS011;43222;52.912;6.940;2022-10-26T01:05:52;20.15;;;13.55;;
57395;SDS011;43222;52.912;6.940;2022-10-26T01:08:20;19.15;;;13.18;;
57395;SDS011;43222;52.912;6.940;2022-10-26T01:10:46;25.48;;;14.25;;
57395;SDS011;43222;52.912;6.940;2022-10-26T01:13:13;20.75;;;14.38;;
57395;SDS011;43222;52.912;6.940;2022-10-26T01:18:12;23.20;;;14.60;;
57395;SDS011;43222;52.912;6.940;2022-10-26T01:20:58;16.90;;;12.77;;
57395;SDS011;43222;52.912;6.940;2022-10-26T01:26:00;18.88;;;13.43;;
57395;SDS011;43222;52.912;6.940;2022-10-26T01:30:56;19.45;;;14.50;;
57395;SDS011;43222;52.912;6.940;2022-10-26T01:36:07;22.85;;;15.80;;
57395;SDS011;43222;52.912;6.940;2022-10-26T01:38:39;27.88;;;16.33;;
57395;SDS011;43222;52.912;6.940;2022-10-26T01:43:35;27.10;;;17.02;;
57395;SDS011;43222;52.912;6.940;2022-10-26T01:46:03;27.50;;;17.08;;
57395;SDS011;43222;52.912;6.940;2022-10-26T01:48:30;23.50;;;15.85;;
57395;SDS011;43222;52.912;6.940;2022-10-26T01:50:57;23.42;;;16.00;;
57395;SDS011;43222;52.912;6.940;2022-10-26T01:53:24;24.30;;;16.42;;
57395;SDS011;43222;52.912;6.940;2022-10-26T01:55:52;29.63;;;17.05;;
57395;SDS011;43222;52.912;6.940;2022-10-26T01:58:32;25.85;;;17.02;;
57395;SDS011;43222;52.912;6.940;2022-10-26T02:01:08;25.98;;;17.52;;
57395;SDS011;43222;52.912;6.940;2022-10-26T02:06:14;29.05;;;17.88;;
57395;SDS011;43222;52.912;6.940;2022-10-26T02:08:45;30.50;;;18.20;;
57395;SDS011;43222;52.912;6.940;2022-10-26T02:11:31;26.30;;;17.83;;
57395;SDS011;43222;52.912;6.940;2022-10-26T02:14:06;25.23;;;17.33;;
57395;SDS011;43222;52.912;6.940;2022-10-26T02:19:21;27.13;;;18.58;;
57395;SDS011;43222;52.912;6.940;2022-10-26T02:21:51;25.92;;;17.75;;
57395;SDS011;43222;52.912;6.940;2022-10-26T02:24:18;30.52;;;18.80;;
57395;SDS011;43222;52.912;6.940;2022-10-26T02:26:45;30.85;;;19.10;;
57395;SDS011;43222;52.912;6.940;2022-10-26T02:29:12;26.65;;;18.23;;
57395;SDS011;43222;52.912;6.940;2022-10-26T02:31:40;25.92;;;17.50;;
57395;SDS011;43222;52.912;6.940;2022-10-26T02:34:08;23.73;;;17.42;;
57395;SDS011;43222;52.912;6.940;2022-10-26T02:36:36;24.48;;;18.42;;
57395;SDS011;43222;52.912;6.940;2022-10-26T02:39:03;27.20;;;19.08;;
57395;SDS011;43222;52.912;6.940;2022-10-26T02:41:30;27.90;;;19.20;;
57395;SDS011;43222;52.912;6.940;2022-10-26T02:44:06;30.77;;;19.27;;
57395;SDS011;43222;52.912;6.940;2022-10-26T02:46:33;31.20;;;19.77;;
57395;SDS011;43222;52.912;6.940;2022-10-26T02:48:59;29.90;;;19.67;;
57395;SDS011;43222;52.912;6.940;2022-10-26T02:54:01;35.30;;;19.95;;
57395;SDS011;43222;52.912;6.940;2022-10-26T02:56:35;32.38;;;21.05;;
57395;SDS011;43222;52.912;6.940;2022-10-26T02:59:04;31.92;;;19.55;;
57395;SDS011;43222;52.912;6.940;2022-10-26T03:01:31;28.55;;;20.27;;
57395;SDS011;43222;52.912;6.940;2022-10-26T03:03:58;37.67;;;21.60;;
57395;SDS011;43222;52.912;6.940;2022-10-26T03:06:25;34.63;;;22.00;;
57395;SDS011;43222;52.912;6.940;2022-10-26T03:08:51;34.20;;;21.88;;
57395;SDS011;43222;52.912;6.940;2022-10-26T03:11:17;33.28;;;22.50;;
57395;SDS011;43222;52.912;6.940;2022-10-26T03:13:43;35.97;;;23.65;;
57395;SDS011;43222;52.912;6.940;2022-10-26T03:16:09;38.30;;;23.00;;
57395;SDS011;43222;52.912;6.940;2022-10-26T03:18:36;38.63;;;22.98;;
57395;SDS011;43222;52.912;6.940;2022-10-26T03:21:02;35.60;;;22.90;;
57395;SDS011;43222;52.912;6.940;2022-10-26T03:23:28;33.80;;;22.42;;
57395;SDS011;43222;52.912;6.940;2022-10-26T03:25:57;35.65;;;22.65;;
57395;SDS011;43222;52.912;6.940;2022-10-26T03:28:24;35.67;;;21.58;;
57395;SDS011;43222;52.912;6.940;2022-10-26T03:30:50;39.45;;;23.65;;
57395;SDS011;43222;52.912;6.940;2022-10-26T03:33:16;30.40;;;21.88;;
57395;SDS011;43222;52.912;6.940;2022-10-26T03:35:42;35.00;;;23.05;;
57395;SDS011;43222;52.912;6.940;2022-10-26T03:38:08;41.67;;;24.48;;
57395;SDS011;43222;52.912;6.940;2022-10-26T03:40:34;34.47;;;22.23;;
57395;SDS011;43222;52.912;6.940;2022-10-26T03:43:01;34.38;;;23.00;;
57395;SDS011;43222;52.912;6.940;2022-10-26T03:45:27;37.03;;;23.60;;
57395;SDS011;43222;52.912;6.940;2022-10-26T03:47:53;35.70;;;23.05;;
57395;SDS011;43222;52.912;6.940;2022-10-26T03:50:20;36.58;;;24.17;;
57395;SDS011;43222;52.912;6.940;2022-10-26T03:52:47;35.58;;;23.98;;
57395;SDS011;43222;52.912;6.940;2022-10-26T03:55:13;35.05;;;22.85;;
57395;SDS011;43222;52.912;6.940;2022-10-26T03:57:43;37.15;;;23.55;;
57395;SDS011;43222;52.912;6.940;2022-10-26T04:00:11;35.40;;;22.77;;
57395;SDS011;43222;52.912;6.940;2022-10-26T04:02:39;35.05;;;23.83;;
57395;SDS011;43222;52.912;6.940;2022-10-26T04:05:05;37.65;;;22.90;;
57395;SDS011;43222;52.912;6.940;2022-10-26T04:07:31;37.60;;;24.23;;
57395;SDS011;43222;52.912;6.940;2022-10-26T04:09:58;42.55;;;25.00;;
57395;SDS011;43222;52.912;6.940;2022-10-26T04:12:24;39.55;;;25.17;;
57395;SDS011;43222;52.912;6.940;2022-10-26T04:14:50;39.42;;;24.70;;
57395;SDS011;43222;52.912;6.940;2022-10-26T04:17:16;47.15;;;25.98;;
57395;SDS011;43222;52.912;6.940;2022-10-26T04:19:42;41.45;;;25.40;;
57395;SDS011;43222;52.912;6.940;2022-10-26T04:22:08;40.90;;;25.45;;
57395;SDS011;43222;52.912;6.940;2022-10-26T04:24:34;40.97;;;26.27;;
57395;SDS011;43222;52.912;6.940;2022-10-26T04:27:00;42.13;;;25.13;;
57395;SDS011;43222;52.912;6.940;2022-10-26T04:29:26;44.53;;;24.83;;
57395;SDS011;43222;52.912;6.940;2022-10-26T04:31:52;39.53;;;24.40;;
57395;SDS011;43222;52.912;6.940;2022-10-26T04:34:18;35.80;;;24.52;;
57395;SDS011;43222;52.912;6.940;2022-10-26T04:36:44;37.17;;;24.35;;
57395;SDS011;43222;52.912;6.940;2022-10-26T04:39:10;38.63;;;24.30;;
57395;SDS011;43222;52.912;6.940;2022-10-26T04:41:36;38.13;;;23.27;;
57395;SDS011;43222;52.912;6.940;2022-10-26T04:44:03;36.38;;;23.10;;
57395;SDS011;43222;52.912;6.940;2022-10-26T04:46:29;37.47;;;23.73;;
57395;SDS011;43222;52.912;6.940;2022-10-26T04:48:55;38.42;;;23.00;;
57395;SDS011;43222;52.912;6.940;2022-10-26T04:51:21;34.30;;;22.33;;
57395;SDS011;43222;52.912;6.940;2022-10-26T04:53:47;35.47;;;21.58;;
57395;SDS011;43222;52.912;6.940;2022-10-26T04:56:13;38.15;;;23.40;;
57395;SDS011;43222;52.912;6.940;2022-10-26T04:58:39;36.78;;;23.00;;
57395;SDS011;43222;52.912;6.940;2022-10-26T05:01:05;36.72;;;23.52;;
57395;SDS011;43222;52.912;6.940;2022-10-26T05:03:31;41.72;;;23.90;;
57395;SDS011;43222;52.912;6.940;2022-10-26T05:05:57;35.47;;;23.65;;
57395;SDS011;43222;52.912;6.940;2022-10-26T05:08:23;44.20;;;24.08;;
57395;SDS011;43222;52.912;6.940;2022-10-26T05:10:49;36.05;;;23.70;;
57395;SDS011;43222;52.912;6.940;2022-10-26T05:13:16;34.70;;;23.35;;
57395;SDS011;43222;52.912;6.940;2022-10-26T05:15:42;37.85;;;23.17;;
57395;SDS011;43222;52.912;6.940;2022-10-26T05:18:08;35.97;;;21.13;;
57395;SDS011;43222;52.912;6.940;2022-10-26T05:20:34;41.40;;;22.52;;
57395;SDS011;43222;52.912;6.940;2022-10-26T05:23:01;38.17;;;23.35;;
57395;SDS011;43222;52.912;6.940;2022-10-26T05:25:29;35.17;;;21.27;;
57395;SDS011;43222;52.912;6.940;2022-10-26T05:27:58;36.58;;;22.80;;
57395;SDS011;43222;52.912;6.940;2022-10-26T05:30:25;31.05;;;20.80;;
57395;SDS011;43222;52.912;6.940;2022-10-26T05:32:52;37.25;;;21.98;;
57395;SDS011;43222;52.912;6.940;2022-10-26T05:35:18;36.13;;;21.77;;
57395;SDS011;43222;52.912;6.940;2022-10-26T05:37:44;30.52;;;21.25;;
57395;SDS011;43222;52.912;6.940;2022-10-26T05:40:10;33.28;;;21.27;;
57395;SDS011;43222;52.912;6.940;2022-10-26T05:42:37;33.60;;;20.55;;
57395;SDS011;43222;52.912;6.940;2022-10-26T05:45:03;31.70;;;20.52;;
57395;SDS011;43222;52.912;6.940;2022-10-26T05:47:29;30.70;;;19.90;;
57395;SDS011;43222;52.912;6.940;2022-10-26T05:49:55;32.20;;;20.52;;
57395;SDS011;43222;52.912;6.940;2022-10-26T05:52:21;33.38;;;20.60;;
57395;SDS011;43222;52.912;6.940;2022-10-26T05:54:47;31.13;;;19.92;;
57395;SDS011;43222;52.912;6.940;2022-10-26T05:57:13;31.95;;;20.88;;
57395;SDS011;43222;52.912;6.940;2022-10-26T05:59:39;31.83;;;20.20;;
57395;SDS011;43222;52.912;6.940;2022-10-26T06:02:17;33.92;;;20.42;;
57395;SDS011;43222;52.912;6.940;2022-10-26T06:04:49;33.80;;;20.83;;
57395;SDS011;43222;52.912;6.940;2022-10-26T06:07:16;32.20;;;19.85;;
57395;SDS011;43222;52.912;6.940;2022-10-26T06:09:44;34.97;;;20.85;;
57395;SDS011;43222;52.912;6.940;2022-10-26T06:12:11;31.05;;;19.80;;
57395;SDS011;43222;52.912;6.940;2022-10-26T06:14:37;26.88;;;19.38;;
57395;SDS011;43222;52.912;6.940;2022-10-26T06:19:34;30.35;;;19.15;;
57395;SDS011;43222;52.912;6.940;2022-10-26T06:24:33;32.25;;;18.75;;
57395;SDS011;43222;52.912;6.940;2022-10-26T06:29:58;27.77;;;18.85;;
57395;SDS011;43222;52.912;6.940;2022-10-26T06:32:25;30.30;;;18.38;;
57395;SDS011;43222;52.912;6.940;2022-10-26T06:34:53;35.67;;;18.73;;
57395;SDS011;43222;52.912;6.940;2022-10-26T06:37:22;33.38;;;18.65;;
57395;SDS011;43222;52.912;6.940;2022-10-26T06:39:49;29.45;;;17.48;;
57395;SDS011;43222;52.912;6.940;2022-10-26T06:42:16;25.02;;;17.10;;
57395;SDS011;43222;52.912;6.940;2022-10-26T06:44:42;23.45;;;16.63;;
57395;SDS011;43222;52.912;6.940;2022-10-26T06:47:09;26.55;;;16.95;;
57395;SDS011;43222;52.912;6.940;2022-10-26T06:49:41;25.58;;;15.95;;
57395;SDS011;43222;52.912;6.940;2022-10-26T06:57:09;21.52;;;14.73;;
57395;SDS011;43222;52.912;6.940;2022-10-26T06:59:37;23.33;;;15.90;;
57395;SDS011;43222;52.912;6.940;2022-10-26T07:02:04;25.40;;;14.55;;
57395;SDS011;43222;52.912;6.940;2022-10-26T07:04:31;20.15;;;15.20;;
57395;SDS011;43222;52.912;6.940;2022-10-26T07:06:57;20.60;;;13.68;;
57395;SDS011;43222;52.912;6.940;2022-10-26T07:09:23;22.58;;;14.65;;
57395;SDS011;43222;52.912;6.940;2022-10-26T07:11:49;20.35;;;12.32;;
57395;SDS011;43222;52.912;6.940;2022-10-26T07:14:15;18.15;;;10.65;;
57395;SDS011;43222;52.912;6.940;2022-10-26T07:16:41;19.40;;;11.48;;
57395;SDS011;43222;52.912;6.940;2022-10-26T07:19:07;14.45;;;11.05;;
57395;SDS011;43222;52.912;6.940;2022-10-26T07:21:33;17.02;;;11.07;;
57395;SDS011;43222;52.912;6.940;2022-10-26T07:23:59;22.23;;;11.23;;
57395;SDS011;43222;52.912;6.940;2022-10-26T07:26:25;18.08;;;10.70;;
57395;SDS011;43222;52.912;6.940;2022-10-26T07:28:51;15.75;;;11.18;;
57395;SDS011;43222;52.912;6.940;2022-10-26T07:31:17;18.08;;;10.75;;
57395;SDS011;43222;52.912;6.940;2022-10-26T07:33:43;16.40;;;10.02;;
57395;SDS011;43222;52.912;6.940;2022-10-26T07:36:10;16.40;;;9.60;;
57395;SDS011;43222;52.912;6.940;2022-10-26T07:38:37;14.43;;;9.52;;
57395;SDS011;43222;52.912;6.940;2022-10-26T07:41:03;20.15;;;9.82;;
57395;SDS011;43222;52.912;6.940;2022-10-26T07:43:29;16.95;;;9.93;;
57395;SDS011;43222;52.912;6.940;2022-10-26T07:45:56;19.38;;;10.93;;
57395;SDS011;43222;52.912;6.940;2022-10-26T07:48:22;14.23;;;9.80;;
57395;SDS011;43222;52.912;6.940;2022-10-26T07:50:48;17.50;;;9.18;;
57395;SDS011;43222;52.912;6.940;2022-10-26T07:53:14;18.15;;;9.40;;
57395;SDS011;43222;52.912;6.940;2022-10-26T07:55:40;16.38;;;9.25;;
57395;SDS011;43222;52.912;6.940;2022-10-26T07:58:06;15.13;;;8.48;;
57395;SDS011;43222;52.912;6.940;2022-10-26T08:00:32;14.02;;;8.68;;
57395;SDS011;43222;52.912;6.940;2022-10-26T08:02:58;15.07;;;8.60;;
57395;SDS011;43222;52.912;6.940;2022-10-26T08:05:24;12.25;;;7.82;;
57395;SDS011;43222;52.912;6.940;2022-10-26T08:07:50;12.38;;;7.07;;
57395;SDS011;43222;52.912;6.940;2022-10-26T08:10:16;13.70;;;7.50;;
57395;SDS011;43222;52.912;6.940;2022-10-26T08:12:42;52.03;;;20.02;;
57395;SDS011;43222;52.912;6.940;2022-10-26T08:15:09;29.33;;;13.25;;
57395;SDS011;43222;52.912;6.940;2022-10-26T08:17:35;32.90;;;12.45;;
57395;SDS011;43222;52.912;6.940;2022-10-26T08:20:02;51.30;;;12.43;;
57395;SDS011;43222;52.912;6.940;2022-10-26T08:22:28;37.20;;;12.25;;
57395;SDS011;43222;52.912;6.940;2022-10-26T08:24:54;18.17;;;8.05;;
57395;SDS011;43222;52.912;6.940;2022-10-26T08:27:20;28.63;;;8.88;;
57395;SDS011;43222;52.912;6.940;2022-10-26T08:29:46;45.65;;;9.25;;
57395;SDS011;43222;52.912;6.940;2022-10-26T08:32:12;30.13;;;8.93;;
57395;SDS011;43222;52.912;6.940;2022-10-26T08:34:38;40.85;;;9.55;;
57395;SDS011;43222;52.912;6.940;2022-10-26T08:37:04;23.13;;;8.55;;
57395;SDS011;43222;52.912;6.940;2022-10-26T08:39:30;25.40;;;7.00;;
57395;SDS011;43222;52.912;6.940;2022-10-26T08:42:00;18.17;;;6.97;;
57395;SDS011;43222;52.912;6.940;2022-10-26T08:44:35;22.50;;;7.10;;
57395;SDS011;43222;52.912;6.940;2022-10-26T08:47:08;29.08;;;7.50;;
57395;SDS011;43222;52.912;6.940;2022-10-26T08:49:40;19.63;;;6.90;;
57395;SDS011;43222;52.912;6.940;2022-10-26T08:52:08;18.88;;;6.93;;
57395;SDS011;43222;52.912;6.940;2022-10-26T08:54:37;15.55;;;6.45;;
57395;SDS011;43222;52.912;6.940;2022-10-26T08:57:10;15.77;;;6.40;;
57395;SDS011;43222;52.912;6.940;2022-10-26T08:59:40;12.50;;;6.00;;
57395;SDS011;43222;52.912;6.940;2022-10-26T09:02:11;9.95;;;6.32;;
57395;SDS011;43222;52.912;6.940;2022-10-26T09:04:38;19.92;;;6.63;;
57395;SDS011;43222;52.912;6.940;2022-10-26T09:14:56;10.55;;;6.22;;
57395;SDS011;43222;52.912;6.940;2022-10-26T09:24:51;10.60;;;5.53;;
57395;SDS011;43222;52.912;6.940;2022-10-26T09:27:31;10.35;;;5.43;;
57395;SDS011;43222;52.912;6.940;2022-10-26T09:30:11;22.90;;;6.47;;
57395;SDS011;43222;52.912;6.940;2022-10-26T09:32:39;22.80;;;6.85;;
57395;SDS011;43222;52.912;6.940;2022-10-26T09:35:11;14.10;;;5.97;;
57395;SDS011;43222;52.912;6.940;2022-10-26T09:37:42;15.25;;;5.80;;
57395;SDS011;43222;52.912;6.940;2022-10-26T09:47:38;11.45;;;5.65;;
57395;SDS011;43222;52.912;6.940;2022-10-26T09:52:38;9.88;;;4.40;;
57395;SDS011;43222;52.912;6.940;2022-10-26T09:55:04;8.98;;;4.22;;
57395;SDS011;43222;52.912;6.940;2022-10-26T09:57:30;11.15;;;4.30;;
57395;SDS011;43222;52.912;6.940;2022-10-26T09:59:57;8.75;;;4.05;;
57395;SDS011;43222;52.912;6.940;2022-10-26T10:04:58;11.82;;;4.30;;
57395;SDS011;43222;52.912;6.940;2022-10-26T10:07:24;10.63;;;3.92;;
57395;SDS011;43222;52.912;6.940;2022-10-26T10:10:14;9.73;;;3.70;;
57395;SDS011;43222;52.912;6.940;2022-10-26T10:12:40;9.15;;;3.80;;
57395;SDS011;43222;52.912;6.940;2022-10-26T10:15:17;7.13;;;3.70;;
57395;SDS011;43222;52.912;6.940;2022-10-26T10:17:50;11.50;;;3.80;;
57395;SDS011;43222;52.912;6.940;2022-10-26T10:20:20;7.90;;;3.60;;
57395;SDS011;43222;52.912;6.940;2022-10-26T10:22:59;7.95;;;3.60;;
57395;SDS011;43222;52.912;6.940;2022-10-26T10:25:35;15.63;;;3.75;;
57395;SDS011;43222;52.912;6.940;2022-10-26T10:28:02;8.95;;;3.42;;
57395;SDS011;43222;52.912;6.940;2022-10-26T10:30:50;10.88;;;3.78;;
57395;SDS011;43222;52.912;6.940;2022-10-26T10:33:17;9.75;;;3.38;;
57395;SDS011;43222;52.912;6.940;2022-10-26T10:35:47;9.45;;;3.20;;
57395;SDS011;43222;52.912;6.940;2022-10-26T10:38:20;15.65;;;3.67;;
57395;SDS011;43222;52.912;6.940;2022-10-26T10:40:50;9.90;;;3.25;;
57395;SDS011;43222;52.912;6.940;2022-10-26T10:43:16;9.93;;;3.35;;
57395;SDS011;43222;52.912;6.940;2022-10-26T10:45:46;8.98;;;3.40;;
57395;SDS011;43222;52.912;6.940;2022-10-26T10:48:16;8.98;;;3.20;;
57395;SDS011;43222;52.912;6.940;2022-10-26T10:51:04;10.80;;;3.15;;
57395;SDS011;43222;52.912;6.940;2022-10-26T11:01:31;9.00;;;3.00;;
57395;SDS011;43222;52.912;6.940;2022-10-26T11:04:04;7.85;;;2.80;;
57395;SDS011;43222;52.912;6.940;2022-10-26T11:06:32;9.52;;;3.08;;
57395;SDS011;43222;52.912;6.940;2022-10-26T11:09:02;7.60;;;2.80;;
57395;SDS011;43222;52.912;6.940;2022-10-26T11:11:31;11.38;;;3.10;;
57395;SDS011;43222;52.912;6.940;2022-10-26T11:16:37;40.38;;;4.90;;
57395;SDS011;43222;52.912;6.940;2022-10-26T11:19:22;13.70;;;3.60;;
57395;SDS011;43222;52.912;6.940;2022-10-26T11:21:50;16.23;;;3.30;;
57395;SDS011;43222;52.912;6.940;2022-10-26T11:26:45;13.38;;;3.45;;
57395;SDS011;43222;52.912;6.940;2022-10-26T11:29:18;28.00;;;3.88;;
57395;SDS011;43222;52.912;6.940;2022-10-26T11:31:50;17.27;;;3.65;;
57395;SDS011;43222;52.912;6.940;2022-10-26T11:34:33;14.82;;;3.50;;
57395;SDS011;43222;52.912;6.940;2022-10-26T11:37:02;14.93;;;3.60;;
57395;SDS011;43222;52.912;6.940;2022-10-26T11:39:35;10.50;;;3.50;;
57395;SDS011;43222;52.912;6.940;2022-10-26T11:44:31;9.57;;;3.20;;
57395;SDS011;43222;52.912;6.940;2022-10-26T11:47:05;8.02;;;3.10;;
57395;SDS011;43222;52.912;6.940;2022-10-26T11:54:46;7.82;;;2.70;;
57395;SDS011;43222;52.912;6.940;2022-10-26T11:57:16;11.82;;;3.22;;
57395;SDS011;43222;52.912;6.940;2022-10-26T11:59:45;74.80;;;5.93;;
57395;SDS011;43222;52.912;6.940;2022-10-26T12:02:22;35.60;;;3.88;;
57395;SDS011;43222;52.912;6.940;2022-10-26T12:04:51;23.80;;;3.55;;
57395;SDS011;43222;52.912;6.940;2022-10-26T12:07:25;20.90;;;3.50;;
57395;SDS011;43222;52.912;6.940;2022-10-26T12:09:52;27.48;;;4.22;;
57395;SDS011;43222;52.912;6.940;2022-10-26T12:15:15;12.63;;;3.25;;
57395;SDS011;43222;52.912;6.940;2022-10-26T12:22:53;9.40;;;3.30;;
57395;SDS011;43222;52.912;6.940;2022-10-26T12:25:20;7.45;;;3.05;;
57395;SDS011;43222;52.912;6.940;2022-10-26T12:37:39;9.65;;;3.22;;
57395;SDS011;43222;52.912;6.940;2022-10-26T12:42:49;10.13;;;3.90;;
57395;SDS011;43222;52.912;6.940;2022-10-26T12:45:17;9.88;;;3.47;;
57395;SDS011;43222;52.912;6.940;2022-10-26T12:52:40;10.73;;;3.30;;
57395;SDS011;43222;52.912;6.940;2022-10-26T13:00:12;10.20;;;3.00;;
57395;SDS011;43222;52.912;6.940;2022-10-26T13:02:47;10.20;;;3.42;;
57395;SDS011;43222;52.912;6.940;2022-10-26T13:07:48;8.57;;;3.55;;
57395;SDS011;43222;52.912;6.940;2022-10-26T13:10:18;10.93;;;3.50;;
57395;SDS011;43222;52.912;6.940;2022-10-26T13:12:53;7.68;;;3.63;;
57395;SDS011;43222;52.912;6.940;2022-10-26T13:18:06;8.90;;;3.33;;
57395;SDS011;43222;52.912;6.940;2022-10-26T13:20:33;12.15;;;3.50;;
57395;SDS011;43222;52.912;6.940;2022-10-26T13:23:00;9.25;;;3.97;;
57395;SDS011;43222;52.912;6.940;2022-10-26T13:25:28;9.18;;;3.30;;
57395;SDS011;43222;52.912;6.940;2022-10-26T13:27:59;9.15;;;3.60;;
57395;SDS011;43222;52.912;6.940;2022-10-26T13:30:42;10.00;;;3.63;;
57395;SDS011;43222;52.912;6.940;2022-10-26T13:33:18;8.95;;;3.47;;
57395;SDS011;43222;52.912;6.940;2022-10-26T13:35:46;9.20;;;3.92;;
57395;SDS011;43222;52.912;6.940;2022-10-26T13:38:12;11.05;;;4.38;;
57395;SDS011;43222;52.912;6.940;2022-10-26T13:40:43;11.25;;;3.78;;
57395;SDS011;43222;52.912;6.940;2022-10-26T13:43:13;10.98;;;3.88;;
57395;SDS011;43222;52.912;6.940;2022-10-26T13:46:02;11.88;;;4.03;;
57395;SDS011;43222;52.912;6.940;2022-10-26T13:48:29;9.63;;;3.60;;
57395;SDS011;43222;52.912;6.940;2022-10-26T13:50:58;11.57;;;3.75;;
57395;SDS011;43222;52.912;6.940;2022-10-26T13:53:33;14.52;;;3.80;;
57395;SDS011;43222;52.912;6.940;2022-10-26T13:59:08;8.70;;;3.33;;
57395;SDS011;43222;52.912;6.940;2022-10-26T14:01:35;9.75;;;3.88;;
57395;SDS011;43222;52.912;6.940;2022-10-26T14:04:14;12.93;;;3.55;;
57395;SDS011;43222;52.912;6.940;2022-10-26T14:06:48;11.60;;;3.53;;
57395;SDS011;43222;52.912;6.940;2022-10-26T14:09:15;8.15;;;3.55;;
57395;SDS011;43222;52.912;6.940;2022-10-26T14:11:48;10.25;;;3.67;;
57395;SDS011;43222;52.912;6.940;2022-10-26T14:14:20;10.65;;;3.70;;
57395;SDS011;43222;52.912;6.940;2022-10-26T14:16:48;8.75;;;3.72;;
57395;SDS011;43222;52.912;6.940;2022-10-26T14:19:23;10.13;;;4.18;;
57395;SDS011;43222;52.912;6.940;2022-10-26T14:21:50;11.57;;;3.47;;
57395;SDS011;43222;52.912;6.940;2022-10-26T14:24:20;9.77;;;3.75;;
57395;SDS011;43222;52.912;6.940;2022-10-26T14:26:46;7.85;;;3.72;;
57395;SDS011;43222;52.912;6.940;2022-10-26T14:29:17;10.13;;;4.25;;
57395;SDS011;43222;52.912;6.940;2022-10-26T14:31:43;12.15;;;3.75;;
57395;SDS011;43222;52.912;6.940;2022-10-26T14:34:10;15.55;;;4.30;;
57395;SDS011;43222;52.912;6.940;2022-10-26T14:39:06;16.20;;;4.38;;
57395;SDS011;43222;52.912;6.940;2022-10-26T14:41:34;12.80;;;4.53;;
57395;SDS011;43222;52.912;6.940;2022-10-26T14:44:00;11.63;;;4.10;;
57395;SDS011;43222;52.912;6.940;2022-10-26T14:46:27;11.57;;;4.38;;
57395;SDS011;43222;52.912;6.940;2022-10-26T14:48:57;9.65;;;4.20;;
57395;SDS011;43222;52.912;6.940;2022-10-26T14:51:27;16.13;;;4.55;;
57395;SDS011;43222;52.912;6.940;2022-10-26T14:53:55;14.98;;;4.60;;
57395;SDS011;43222;52.912;6.940;2022-10-26T14:58:52;15.18;;;5.00;;
57395;SDS011;43222;52.912;6.940;2022-10-26T15:03:58;11.20;;;4.72;;
57395;SDS011;43222;52.912;6.940;2022-10-26T15:08:54;11.10;;;4.43;;
57395;SDS011;43222;52.912;6.940;2022-10-26T15:11:20;12.93;;;5.32;;
57395;SDS011;43222;52.912;6.940;2022-10-26T15:13:46;16.70;;;5.55;;
57395;SDS011;43222;52.912;6.940;2022-10-26T15:16:16;13.20;;;5.28;;
57395;SDS011;43222;52.912;6.940;2022-10-26T15:18:43;12.30;;;5.18;;
57395;SDS011;43222;52.912;6.940;2022-10-26T15:21:21;14.57;;;5.00;;
57395;SDS011;43222;52.912;6.940;2022-10-26T15:23:48;10.40;;;4.40;;
57395;SDS011;43222;52.912;6.940;2022-10-26T15:26:14;11.68;;;4.30;;
57395;SDS011;43222;52.912;6.940;2022-10-26T15:28:40;9.50;;;4.55;;
57395;SDS011;43222;52.912;6.940;2022-10-26T15:33:37;11.27;;;4.43;;
57395;SDS011;43222;52.912;6.940;2022-10-26T15:36:13;10.70;;;4.45;;
57395;SDS011;43222;52.912;6.940;2022-10-26T15:38:41;10.18;;;4.10;;
57395;SDS011;43222;52.912;6.940;2022-10-26T15:41:43;14.88;;;4.75;;
57395;SDS011;43222;52.912;6.940;2022-10-26T15:44:00;10.40;;;4.45;;
57395;SDS011;43222;52.912;6.940;2022-10-26T15:46:30;10.83;;;4.70;;
57395;SDS011;43222;52.912;6.940;2022-10-26T15:48:57;12.15;;;4.57;;
57395;SDS011;43222;52.912;6.940;2022-10-26T15:51:24;10.45;;;4.70;;
57395;SDS011;43222;52.912;6.940;2022-10-26T15:53:50;10.98;;;4.40;;
57395;SDS011;43222;52.912;6.940;2022-10-26T15:56:17;13.65;;;4.80;;
57395;SDS011;43222;52.912;6.940;2022-10-26T15:58:43;12.18;;;4.50;;
57395;SDS011;43222;52.912;6.940;2022-10-26T16:01:19;12.40;;;4.68;;
57395;SDS011;43222;52.912;6.940;2022-10-26T16:03:46;11.32;;;5.20;;
57395;SDS011;43222;52.912;6.940;2022-10-26T16:06:15;11.32;;;5.72;;
57395;SDS011;43222;52.912;6.940;2022-10-26T16:08:44;12.77;;;5.90;;
57395;SDS011;43222;52.912;6.940;2022-10-26T16:11:13;12.02;;;5.22;;
57395;SDS011;43222;52.912;6.940;2022-10-26T16:13:39;14.13;;;7.18;;
57395;SDS011;43222;52.912;6.940;2022-10-26T16:16:08;12.18;;;5.85;;
57395;SDS011;43222;52.912;6.940;2022-10-26T16:18:34;14.35;;;7.35;;
57395;SDS011;43222;52.912;6.940;2022-10-26T16:21:00;16.13;;;8.02;;
57395;SDS011;43222;52.912;6.940;2022-10-26T16:23:26;15.07;;;6.47;;
57395;SDS011;43222;52.912;6.940;2022-10-26T16:25:52;12.82;;;5.82;;
57395;SDS011;43222;52.912;6.940;2022-10-26T16:28:18;16.63;;;7.57;;
57395;SDS011;43222;52.912;6.940;2022-10-26T16:30:44;11.40;;;7.43;;
57395;SDS011;43222;52.912;6.940;2022-10-26T16:33:10;12.55;;;6.70;;
57395;SDS011;43222;52.912;6.940;2022-10-26T16:35:36;12.27;;;7.50;;
57395;SDS011;43222;52.912;6.940;2022-10-26T16:38:02;13.30;;;6.85;;
57395;SDS011;43222;52.912;6.940;2022-10-26T16:40:28;15.98;;;9.95;;
57395;SDS011;43222;52.912;6.940;2022-10-26T16:42:54;12.82;;;6.78;;
57395;SDS011;43222;52.912;6.940;2022-10-26T16:45:20;13.25;;;8.15;;
57395;SDS011;43222;52.912;6.940;2022-10-26T16:47:46;14.02;;;6.95;;
57395;SDS011;43222;52.912;6.940;2022-10-26T16:50:12;13.35;;;7.22;;
57395;SDS011;43222;52.912;6.940;2022-10-26T16:52:38;11.70;;;6.25;;
57395;SDS011;43222;52.912;6.940;2022-10-26T16:55:05;10.57;;;6.07;;